Combolcha Airport


Codes: HADC/DSE
Name: Combolcha Airport
City: Dessie
Country: Ethiopia
Elevation: 6117 ft.

Photos at Combolcha Airport


   Photos courtesy of SpottingLog. You can add your own sightings and photos by signing up for a free trial today.



No photos found.

Weather at Combolcha Airport


Time (UTC)DescriptionTempratureWindCloud coverageVisibilityPressureHumidity
15-Apr-2024 18:00Moderate Rain22°C2 mph, NW95%10000m1013hPa73%
15-Apr-2024 21:00Light Rain21°C2 mph, NW98%10000m1014hPa76%
16-Apr-2024 00:00Light Rain20°C2 mph, SW100%10000m1013hPa77%
16-Apr-2024 03:00Light Rain18°C4 mph, SW100%10000m1015hPa84%
16-Apr-2024 06:00Light Rain23°C4 mph, SE98%10000m1015hPa63%
16-Apr-2024 09:00Light Rain25°C7 mph, E76%10000m1013hPa55%
16-Apr-2024 12:00Light Rain24°C7 mph, E88%10000m1012hPa65%
16-Apr-2024 15:00Light Rain22°C4 mph, E100%10000m1012hPa79%
16-Apr-2024 18:00Moderate Rain20°C2 mph, NE100%10000m1015hPa88%
16-Apr-2024 21:00Light Rain19°C2 mph, W95%10000m1015hPa87%
17-Apr-2024 00:00Light Rain18°C2 mph, NW96%10000m1013hPa83%
17-Apr-2024 03:00Overcast Clouds18°C2 mph, SW100%10000m1015hPa84%
17-Apr-2024 06:00Light Rain22°C4 mph, SE91%10000m1015hPa68%
17-Apr-2024 09:00Light Rain25°C7 mph, E59%10000m1013hPa54%
17-Apr-2024 12:00Broken Clouds26°C7 mph, E79%10000m1010hPa53%
17-Apr-2024 15:00Light Rain22°C4 mph, E95%10000m1013hPa76%
17-Apr-2024 18:00Light Rain19°C0 mph, N89%10000m1015hPa88%
17-Apr-2024 21:00Light Rain19°C2 mph, SW45%10000m1015hPa87%
18-Apr-2024 00:00Light Rain18°C2 mph, SW63%10000m1014hPa84%
18-Apr-2024 03:00Light Rain18°C2 mph, W96%10000m1016hPa82%
18-Apr-2024 06:00Light Rain23°C4 mph, SE86%10000m1016hPa64%
18-Apr-2024 09:00Light Rain26°C7 mph, E66%10000m1013hPa53%
18-Apr-2024 12:00Light Rain27°C9 mph, E80%10000m1010hPa47%
18-Apr-2024 15:00Light Rain23°C4 mph, E95%10000m1012hPa73%
18-Apr-2024 18:00Moderate Rain20°C2 mph, N91%10000m1014hPa86%
18-Apr-2024 21:00Moderate Rain19°C2 mph, W97%10000m1014hPa84%
19-Apr-2024 00:00Light Rain19°C2 mph, W97%10000m1012hPa80%
19-Apr-2024 03:00Light Rain18°C2 mph, W70%10000m1014hPa83%
19-Apr-2024 06:00Light Rain22°C4 mph, E59%10000m1014hPa66%
19-Apr-2024 09:00Light Rain25°C7 mph, E25%10000m1012hPa54%
19-Apr-2024 12:00Light Rain26°C7 mph, SE41%10000m1008hPa50%
19-Apr-2024 15:00Moderate Rain22°C4 mph, SE92%10000m1010hPa73%
19-Apr-2024 18:00Moderate Rain20°C4 mph, SW96%10000m1013hPa80%
19-Apr-2024 21:00Light Rain19°C2 mph, W99%10000m1012hPa78%
20-Apr-2024 00:00Light Rain18°C2 mph, SW89%10000m1011hPa78%
20-Apr-2024 03:00Light Rain18°C2 mph, W97%10000m1013hPa79%
20-Apr-2024 06:00Light Rain22°C4 mph, E97%10000m1013hPa64%
20-Apr-2024 09:00Light Rain25°C7 mph, E96%10000m1011hPa55%
20-Apr-2024 12:00Moderate Rain24°C7 mph, E92%10000m1010hPa62%
20-Apr-2024 15:00Light Rain22°C4 mph, E78%10000m1010hPa77%